Terminal Aerodrome Forecast
Issued by NWS Lake Charles, LA

Home | Current Version | Previous Version | Text Only | Print | Product List | Glossary On
Versions: 1 2 3 4 5 6 7 8 9 10 11 12 13
000
FTUS44 KLCH 231100
TAFLFT
TAF
KLFT 231132Z 2312/2412 VRB03KT P6SM FEW025 SCT250
      TEMPO 2312/2313 5SM BR
     FM231400 VRB04KT P6SM VCSH SCT025 BKN035
     FM231900 VRB04KT P6SM VCTS SCT030CB BKN050
      TEMPO 2319/2323 3SM SHRA BKN035
     FM240100 00000KT P6SM SCT040 BKN100=

USA.gov is the U.S. government's official web portal to all federal, state and local government web resources and services.